Time;durP1;ratioP1;P1;durP2;ratioP2;P2;SDS_P1;SDS_P2;PMS_P1;PMS_P2;Temp;Humidity;BMP_temperature;BMP_pressure;BME280_temperature;BME280_humidity;BME280_pressure;Samples;Min_cycle;Max_cycle;Signal;HPM_P1;HPM_P2
2023/04/11 14:04:00;;;;;;;2.53;0.93;;;;;;;;;;6205449;28;142296;-80
2023/04/11 14:07:29;;;;;;;3.03;0.82;;;;;;;;;;6215478;27;20594;-81
2023/04/11 14:10:32;;;;;;;3.55;1.00;;;;;;;;;;6230584;28;20205;-79
2023/04/11 14:13:33;;;;;;;2.27;0.87;;;;;;;;;;6230127;28;20093;-76
2023/04/11 14:16:35;;;;;;;2.58;0.80;;;;;;;;;;6229645;28;21003;-85
2023/04/11 14:19:36;;;;;;;3.92;1.65;;;;;;;;;;6227455;28;20153;-85
2023/04/11 14:22:39;;;;;;;3.28;0.90;;;;;;;;;;6232966;28;20046;-82
2023/04/11 14:25:41;;;;;;;;;;;;;;;;;;6232528;28;20045;-83
2023/04/11 14:28:43;;;;;;;3.55;0.77;;;;;;;;;;6231963;28;19929;-83
2023/04/11 14:31:45;;;;;;;1.40;0.70;;;;;;;;;;6228862;28;20051;-83
2023/04/11 14:34:47;;;;;;;2.13;0.77;;;;;;;;;;6230891;28;20045;-82
2023/04/11 14:37:48;;;;;;;3.40;0.70;;;;;;;;;;6233635;28;20131;-82
2023/04/11 14:40:50;;;;;;;3.38;0.88;;;;;;;;;;6233822;28;20057;-83
2023/04/11 14:43:51;;;;;;;1.73;0.90;;;;;;;;;;6251287;28;20191;-85
2023/04/11 14:46:53;;;;;;;3.47;0.70;;;;;;;;;;6230007;28;20060;-82
2023/04/11 14:49:56;;;;;;;4.90;0.77;;;;;;;;;;6213362;28;20046;-83
2023/04/11 14:52:58;;;;;;;4.40;1.00;;;;;;;;;;6237477;28;20105;-84
2023/04/11 14:56:03;;;;;;;6.80;0.98;;;;;;;;;;6250573;28;20067;-82
2023/04/11 14:59:05;;;;;;;2.80;0.85;;;;;;;;;;6238537;28;20073;-82
2023/04/11 15:02:07;;;;;;;2.40;0.70;;;;;;;;;;6215330;28;20048;-82
2023/04/11 15:05:09;;;;;;;2.47;0.82;;;;;;;;;;6230475;28;20132;-83
2023/04/11 15:08:11;;;;;;;3.13;0.75;;;;;;;;;;6228809;28;20065;-83
2023/04/11 15:11:12;;;;;;;3.65;0.70;;;;;;;;;;6210133;28;20046;-82
2023/04/11 15:14:14;;;;;;;2.38;0.75;;;;;;;;;;6209554;28;20460;-82
2023/04/11 15:17:16;;;;;;;2.90;0.70;;;;;;;;;;6215602;28;20056;-81
2023/04/11 15:20:20;;;;;;;2.67;0.93;;;;;;;;;;6226227;28;20535;-84
2023/04/11 15:23:28;;;;;;;3.40;0.88;;;;;;;;;;6230688;28;20038;-83
2023/04/11 15:26:30;;;;;;;6.95;0.75;;;;;;;;;;6186895;28;20050;-83
2023/04/11 15:29:32;;;;;;;2.80;0.60;;;;;;;;;;6190267;28;20126;-82
2023/04/11 15:32:34;;;;;;;3.10;0.90;;;;;;;;;;6202820;28;20056;-84
2023/04/11 15:35:35;;;;;;;3.13;0.80;;;;;;;;;;6205558;28;20041;-84
2023/04/11 15:38:37;;;;;;;2.33;0.82;;;;;;;;;;6205776;28;20503;-82
2023/04/11 15:41:40;;;;;;;3.22;0.98;;;;;;;;;;6202822;28;20432;-82
2023/04/11 15:44:42;;;;;;;;;;;;;;;;;;6205501;28;20434;-82
2023/04/11 15:47:44;;;;;;;1.38;0.73;;;;;;;;;;6206812;28;19979;-82
2023/04/11 15:50:46;;;;;;;2.25;0.80;;;;;;;;;;6224412;28;20049;-84
2023/04/11 15:53:47;;;;;;;9.02;3.08;;;;;;;;;;6224856;28;20058;-84
2023/04/11 15:56:49;;;;;;;3.70;0.90;;;;;;;;;;6207128;28;20072;-84
2023/04/11 15:59:51;;;;;;;4.53;1.00;;;;;;;;;;6204708;28;20550;-82
2023/04/11 16:02:54;;;;;;;4.35;1.00;;;;;;;;;;6201817;28;20061;-83
2023/04/11 16:05:57;;;;;;;1.88;0.80;;;;;;;;;;6207806;28;20049;-84
2023/04/11 16:08:59;;;;;;;3.88;1.05;;;;;;;;;;6206348;28;20054;-84
2023/04/11 16:12:01;;;;;;;3.97;0.90;;;;;;;;;;6203208;28;20050;-83
2023/04/11 16:15:05;;;;;;;4.03;0.80;;;;;;;;;;6207509;28;20072;-80
2023/04/11 16:18:07;;;;;;;2.28;0.77;;;;;;;;;;6226921;28;20049;-81
2023/04/11 16:21:14;;;;;;;2.15;0.65;;;;;;;;;;6213868;28;20092;-80
2023/04/11 16:24:17;;;;;;;1.20;0.50;;;;;;;;;;6214346;28;20415;-81
2023/04/11 16:27:19;;;;;;;2.28;0.70;;;;;;;;;;6214468;28;20129;-81
2023/04/11 16:30:21;;;;;;;0.77;0.73;;;;;;;;;;6196598;28;20618;-81
2023/04/11 16:33:22;;;;;;;3.08;0.93;;;;;;;;;;6209706;28;20046;-82
2023/04/11 16:36:26;;;;;;;2.88;0.80;;;;;;;;;;6206124;28;20108;-81
2023/04/11 16:39:27;;;;;;;2.97;0.90;;;;;;;;;;6191626;28;20090;-82
2023/04/11 16:42:29;;;;;;;1.15;0.60;;;;;;;;;;6211285;28;20041;-83
2023/04/11 16:45:32;;;;;;;1.75;0.73;;;;;;;;;;6215393;28;20116;-80
2023/04/11 16:48:33;;;;;;;6.35;1.20;;;;;;;;;;6218366;28;20052;-85
2023/04/11 16:51:36;;;;;;;2.10;0.80;;;;;;;;;;6214793;28;20266;-82
2023/04/11 16:54:37;;;;;;;2.60;0.73;;;;;;;;;;6201906;28;20132;-81
2023/04/11 16:57:39;;;;;;;2.97;1.00;;;;;;;;;;6202412;28;21143;-80
2023/04/11 17:00:40;;;;;;;2.72;0.90;;;;;;;;;;6205875;28;20111;-82
2023/04/11 17:03:42;;;;;;;3.15;0.75;;;;;;;;;;6202950;28;20451;-81
2023/04/11 17:06:45;;;;;;;3.15;0.60;;;;;;;;;;6206135;28;20053;-81
2023/04/11 17:09:48;;;;;;;1.95;0.88;;;;;;;;;;6219567;28;20053;-82
2023/04/11 17:12:49;;;;;;;1.95;0.77;;;;;;;;;;6220363;28;20046;-81
2023/04/11 17:15:51;;;;;;;2.97;0.77;;;;;;;;;;6200096;28;20065;-80
2023/04/11 17:18:53;;;;;;;4.82;2.00;;;;;;;;;;6203358;28;20046;-79
2023/04/11 17:21:56;;;;;;;10.15;3.38;;;;;;;;;;6207485;28;20049;-80
2023/04/11 17:24:58;;;;;;;14.68;5.60;;;;;;;;;;6189222;28;20135;-81
2023/04/11 17:28:00;;;;;;;5.07;2.08;;;;;;;;;;6207463;28;20060;-82
2023/04/11 17:31:11;;;;;;;2.35;0.70;;;;;;;;;;6206145;28;20076;-82
2023/04/11 17:34:13;;;;;;;6.57;2.47;;;;;;;;;;6205180;28;20523;-81
2023/04/11 17:37:15;;;;;;;5.85;1.92;;;;;;;;;;6208466;28;20516;-81
2023/04/11 17:40:17;;;;;;;3.87;1.00;;;;;;;;;;6192295;28;20054;-81
2023/04/11 17:43:19;;;;;;;7.47;3.15;;;;;;;;;;6202578;28;20038;-83
2023/04/11 17:46:21;;;;;;;7.18;3.25;;;;;;;;;;6205737;28;20045;-81
2023/04/11 17:49:23;;;;;;;3.67;0.90;;;;;;;;;;6204547;28;20172;-81
2023/04/11 17:52:26;;;;;;;4.05;1.70;;;;;;;;;;6206904;28;20046;-80
2023/04/11 17:55:27;;;;;;;4.07;1.03;;;;;;;;;;6190777;28;20050;-84
2023/04/11 17:58:29;;;;;;;1.48;0.90;;;;;;;;;;6205727;28;20050;-82
2023/04/11 18:01:31;;;;;;;6.43;1.60;;;;;;;;;;6219450;28;20088;-84
2023/04/11 18:04:33;;;;;;;4.60;1.52;;;;;;;;;;6197389;28;20547;-82
2023/04/11 18:07:39;;;;;;;8.30;2.17;;;;;;;;;;6207243;28;20042;-79
2023/04/11 18:10:41;;;;;;;7.65;2.67;;;;;;;;;;6204452;28;20121;-81
2023/04/11 18:13:42;;;;;;;4.57;2.00;;;;;;;;;;6206142;28;20042;-81
2023/04/11 18:16:45;;;;;;;7.15;2.60;;;;;;;;;;6209687;28;20053;-82
2023/04/11 18:19:47;;;;;;;3.08;1.75;;;;;;;;;;6203215;28;20172;-79
2023/04/11 18:22:53;;;;;;;4.03;1.20;;;;;;;;;;6204019;28;20050;-80
2023/04/11 18:25:55;;;;;;;2.55;1.15;;;;;;;;;;6201588;28;20049;-80
2023/04/11 18:28:58;;;;;;;3.40;1.38;;;;;;;;;;6207866;28;20103;-82
2023/04/11 18:31:59;;;;;;;3.30;1.70;;;;;;;;;;6203468;28;20046;-79
2023/04/11 18:35:03;;;;;;;4.50;1.98;;;;;;;;;;6203903;28;20061;-80
2023/04/11 18:38:05;;;;;;;16.98;8.38;;;;;;;;;;6200903;28;20053;-80
2023/04/11 18:41:06;;;;;;;9.40;3.78;;;;;;;;;;6204493;28;20053;-83
2023/04/11 18:44:09;;;;;;;4.72;1.60;;;;;;;;;;6200391;28;20126;-80
2023/04/11 18:47:12;;;;;;;;;;;;;;;;;;6201411;28;20185;-79
2023/04/11 18:50:17;;;;;;;;;;;;;;;;;;6200921;28;20032;-81
2023/04/11 18:53:19;;;;;;;3.15;1.80;;;;;;;;;;6182739;28;19929;-80
2023/04/11 18:56:21;;;;;;;3.00;2.25;;;;;;;;;;6185338;28;20045;-83
2023/04/11 18:59:24;;;;;;;4.10;1.70;;;;;;;;;;6203388;28;20093;-80
2023/04/11 19:02:29;;;;;;;7.70;3.00;;;;;;;;;;6201751;28;20081;-84
2023/04/11 19:05:31;;;;;;;2.80;1.63;;;;;;;;;;6186651;28;20133;-79
2023/04/11 19:08:34;;;;;;;2.97;1.33;;;;;;;;;;6171475;28;20046;-82
2023/04/11 19:11:37;;;;;;;5.93;1.43;;;;;;;;;;6187708;28;20088;-82
2023/04/11 19:14:38;;;;;;;3.90;2.85;;;;;;;;;;6206300;28;20429;-79
2023/04/11 19:17:40;;;;;;;4.25;1.50;;;;;;;;;;6203628;28;20584;-81
2023/04/11 19:20:42;;;;;;;4.88;1.40;;;;;;;;;;6207084;28;20133;-80
2023/04/11 19:23:43;;;;;;;5.75;1.85;;;;;;;;;;6204126;28;20500;-80
2023/04/11 19:26:45;;;;;;;6.82;2.65;;;;;;;;;;6208959;28;20045;-83
2023/04/11 19:29:47;;;;;;;5.35;2.70;;;;;;;;;;6207240;28;20060;-76
2023/04/11 19:32:49;;;;;;;14.05;7.15;;;;;;;;;;6205102;28;20529;-78
2023/04/11 19:35:54;;;;;;;7.40;4.03;;;;;;;;;;6209072;28;20053;-78
2023/04/11 19:38:56;;;;;;;5.85;3.10;;;;;;;;;;6216115;28;20065;-75
2023/04/11 19:41:57;;;;;;;5.63;2.13;;;;;;;;;;6232071;28;20050;-76
2023/04/11 19:44:59;;;;;;;7.03;2.33;;;;;;;;;;6205960;28;22277;-79
2023/04/11 19:48:00;;;;;;;3.47;1.83;;;;;;;;;;6207788;28;20124;-75
2023/04/11 19:51:02;;;;;;;6.07;1.90;;;;;;;;;;6216254;28;20803;-78
2023/04/11 19:54:04;;;;;;;6.88;2.10;;;;;;;;;;6202329;28;20046;-76
2023/04/11 19:57:05;;;;;;;4.45;2.08;;;;;;;;;;6206405;28;20061;-79
2023/04/11 20:00:12;;;;;;;7.65;2.75;;;;;;;;;;6206755;28;20076;-79
2023/04/11 20:03:20;;;;;;;7.20;2.55;;;;;;;;;;6204222;28;20169;-76
2023/04/11 20:06:22;;;;;;;5.68;2.40;;;;;;;;;;6208673;28;20049;-77
2023/04/11 20:09:24;;;;;;;3.17;1.80;;;;;;;;;;6201518;28;20049;-79
2023/04/11 20:12:26;;;;;;;5.75;2.10;;;;;;;;;;6198064;28;20046;-78
2023/04/11 20:15:28;;;;;;;3.47;1.77;;;;;;;;;;6206495;28;20046;-76
2023/04/11 20:18:30;;;;;;;7.32;2.35;;;;;;;;;;6187864;28;20046;-79
2023/04/11 20:21:32;;;;;;;5.45;2.40;;;;;;;;;;6187176;28;20041;-77
2023/04/11 20:24:33;;;;;;;7.25;2.70;;;;;;;;;;6208444;28;20045;-75
2023/04/11 20:27:35;;;;;;;8.48;3.03;;;;;;;;;;6206541;28;20057;-78
2023/04/11 20:30:37;;;;;;;15.13;5.40;;;;;;;;;;6208989;28;20112;-78
2023/04/11 20:33:39;;;;;;;4.03;2.40;;;;;;;;;;6204578;28;20045;-80
2023/04/11 20:36:41;;;;;;;7.18;3.78;;;;;;;;;;6210039;28;20450;-78
2023/04/11 20:39:43;;;;;;;9.82;3.17;;;;;;;;;;6197640;28;20046;-77
2023/04/11 20:42:46;;;;;;;12.88;6.13;;;;;;;;;;6182595;28;20866;-80
2023/04/11 20:45:47;;;;;;;6.85;3.15;;;;;;;;;;6202505;28;20108;-76
2023/04/11 20:48:50;;;;;;;8.98;3.05;;;;;;;;;;6218540;28;20133;-77
2023/04/11 20:51:52;;;;;;;4.68;2.63;;;;;;;;;;6214430;28;20429;-78
2023/04/11 20:54:54;;;;;;;6.73;3.00;;;;;;;;;;6198921;28;20050;-79
2023/04/11 20:57:55;;;;;;;6.10;2.33;;;;;;;;;;6204094;28;20046;-80
2023/04/11 21:00:58;;;;;;;9.80;3.25;;;;;;;;;;6205459;28;20564;-76
2023/04/11 21:04:02;;;;;;;7.80;4.00;;;;;;;;;;6208386;28;20411;-78
2023/04/11 21:07:04;;;;;;;9.73;3.83;;;;;;;;;;6209444;28;20057;-78
2023/04/11 21:10:07;;;;;;;7.45;3.35;;;;;;;;;;6188405;28;20063;-78
2023/04/11 21:13:09;;;;;;;4.15;2.20;;;;;;;;;;6206715;28;20557;-79
2023/04/11 21:16:10;;;;;;;6.28;2.80;;;;;;;;;;6196244;28;20038;-77
2023/04/11 21:19:12;;;;;;;9.73;3.45;;;;;;;;;;6211856;28;20053;-78
2023/04/11 21:22:13;;;;;;;11.90;6.13;;;;;;;;;;6209056;28;20038;-78
2023/04/11 21:25:15;;;;;;;7.80;3.90;;;;;;;;;;6209848;28;20054;-77
2023/04/11 21:28:17;;;;;;;7.18;3.10;;;;;;;;;;6207938;28;20488;-78
2023/04/11 21:31:18;;;;;;;9.82;3.50;;;;;;;;;;6222537;28;20065;-76
2023/04/11 21:34:20;;;;;;;7.65;3.83;;;;;;;;;;6209381;28;20065;-78
2023/04/11 21:37:22;;;;;;;8.43;3.63;;;;;;;;;;6207928;28;20042;-76
2023/04/11 21:40:23;;;;;;;3.42;2.25;;;;;;;;;;6188551;28;20045;-77
2023/04/11 21:43:25;;;;;;;6.25;2.75;;;;;;;;;;6198523;28;20046;-77
2023/04/11 21:46:27;;;;;;;5.20;2.35;;;;;;;;;;6218606;28;20041;-77
2023/04/11 21:49:28;;;;;;;7.40;2.60;;;;;;;;;;6208594;28;20201;-78
2023/04/11 21:52:30;;;;;;;7.35;3.85;;;;;;;;;;6204959;28;20041;-76
2023/04/11 21:55:31;;;;;;;8.25;3.17;;;;;;;;;;6206428;28;20064;-77
2023/04/11 21:58:33;;;;;;;7.20;3.40;;;;;;;;;;6209434;28;20053;-78
2023/04/11 22:01:35;;;;;;;7.15;3.05;;;;;;;;;;6220704;28;20040;-79
2023/04/11 22:04:36;;;;;;;9.20;3.30;;;;;;;;;;6206961;28;20164;-79
2023/04/11 22:08:11;;;;;;;7.35;3.60;;;;;;;;;;6205794;28;20049;-79
2023/04/11 22:11:13;;;;;;;7.13;3.95;;;;;;;;;;6208792;28;20050;-79
2023/04/11 22:14:17;;;;;;;7.87;2.90;;;;;;;;;;6208242;28;20048;-78
2023/04/11 22:17:18;;;;;;;7.43;2.55;;;;;;;;;;6205532;28;20034;-79
2023/04/11 22:20:20;;;;;;;6.95;2.38;;;;;;;;;;6190626;28;20037;-78
2023/04/11 22:23:23;;;;;;;6.47;2.30;;;;;;;;;;6206536;28;20042;-79
2023/04/11 22:26:33;;;;;;;6.72;3.10;;;;;;;;;;6222805;28;20139;-77
2023/04/11 22:29:35;;;;;;;6.32;2.90;;;;;;;;;;6212971;28;20113;-78
2023/04/11 22:32:36;;;;;;;8.10;3.50;;;;;;;;;;6212714;28;20038;-82
2023/04/11 22:35:39;;;;;;;7.20;3.10;;;;;;;;;;6211696;28;20050;-78
2023/04/11 22:38:40;;;;;;;7.88;2.92;;;;;;;;;;6209762;28;20046;-79
2023/04/11 22:41:46;;;;;;;11.85;3.65;;;;;;;;;;6210714;28;20052;-77
2023/04/11 22:44:48;;;;;;;9.35;3.65;;;;;;;;;;6211429;28;20061;-77
2023/04/11 22:47:54;;;;;;;11.35;3.13;;;;;;;;;;6209788;28;20052;-78
2023/04/11 22:50:57;;;;;;;7.80;3.03;;;;;;;;;;6213934;28;20049;-77
2023/04/11 22:53:59;;;;;;;8.60;3.30;;;;;;;;;;6206400;28;20046;-78
2023/04/11 22:57:01;;;;;;;8.75;3.30;;;;;;;;;;6210399;28;20149;-79
2023/04/11 23:00:05;;;;;;;5.93;3.10;;;;;;;;;;6184260;28;20116;-78
2023/04/11 23:03:07;;;;;;;8.65;2.83;;;;;;;;;;6210486;28;20056;-78
2023/04/11 23:06:09;;;;;;;18.55;4.93;;;;;;;;;;6213759;28;20058;-77
2023/04/11 23:09:11;;;;;;;11.52;3.88;;;;;;;;;;6209557;28;20045;-78
2023/04/11 23:12:13;;;;;;;12.88;3.85;;;;;;;;;;6208422;28;20046;-77
2023/04/11 23:15:15;;;;;;;7.95;3.55;;;;;;;;;;6213165;28;20045;-78
2023/04/11 23:18:17;;;;;;;10.30;2.70;;;;;;;;;;6211743;28;20050;-79
2023/04/11 23:21:19;;;;;;;7.70;3.17;;;;;;;;;;6227000;28;20045;-79
2023/04/11 23:24:20;;;;;;;6.43;2.50;;;;;;;;;;6209741;28;20049;-76
2023/04/11 23:27:23;;;;;;;5.78;2.55;;;;;;;;;;6211085;28;20038;-77
2023/04/11 23:30:24;;;;;;;5.75;2.88;;;;;;;;;;6210016;28;20145;-77
2023/04/11 23:33:26;;;;;;;7.75;2.70;;;;;;;;;;6210635;28;20041;-77
2023/04/11 23:36:28;;;;;;;10.23;2.55;;;;;;;;;;6213418;28;20034;-79
2023/04/11 23:39:30;;;;;;;6.32;2.78;;;;;;;;;;6208356;28;20042;-79
2023/04/11 23:42:31;;;;;;;5.32;2.45;;;;;;;;;;6193675;28;20050;-77
2023/04/11 23:45:33;;;;;;;5.93;2.28;;;;;;;;;;6212255;28;20060;-78
2023/04/11 23:48:34;;;;;;;4.85;2.38;;;;;;;;;;6209039;28;20042;-78
2023/04/11 23:51:36;;;;;;;6.70;2.75;;;;;;;;;;6212415;28;20427;-79
2023/04/11 23:54:38;;;;;;;9.90;3.08;;;;;;;;;;6213146;28;20492;-78
2023/04/11 23:57:40;;;;;;;8.68;3.08;;;;;;;;;;6228931;28;20046;-77
